Terminal Aerodrome Forecast
Issued by NWS Cleveland, OH

Home | Current Version | Previous Version | Graphics & Text | Print | Product List | Glossary Off
Versions: 1 2 3 4 5 6 7 8 9 10 11 12 13 14 15

000
FTUS41 KCLE 041736
TAFYNG
TAF
KYNG 041736Z 0418/0518 17008KT P6SM VCSH BKN050 BKN100
     FM042100 20008KT P6SM -SHRA OVC050
      TEMPO 0421/0423 3SM -TSRA OVC025CB
     FM042300 32007KT 6SM BR VCSH SCT025 OVC035
     FM050300 03007KT 5SM BR OVC020
      TEMPO 0506/0510 BKN015 OVC020
     FM051000 05010KT P6SM SCT008 OVC010=

USA.gov is the U.S. government's official web portal to all federal, state and local government web resources and services.